sensor_id;sensor_type;location;lat;lon;timestamp;temperature;humidity
66102;HTU21D;52883;51.094;5.880;2023-07-31T00:02:17;15.82;118.99
66102;HTU21D;52883;51.094;5.880;2023-07-31T00:04:42;15.78;118.99
66102;HTU21D;52883;51.094;5.880;2023-07-31T00:07:08;15.74;118.99
66102;HTU21D;52883;51.094;5.880;2023-07-31T00:09:34;15.69;118.99
66102;HTU21D;52883;51.094;5.880;2023-07-31T00:11:59;15.68;118.99
66102;HTU21D;52883;51.094;5.880;2023-07-31T00:14:25;15.67;118.99
66102;HTU21D;52883;51.094;5.880;2023-07-31T00:16:51;15.68;118.99
66102;HTU21D;52883;51.094;5.880;2023-07-31T00:19:16;15.65;118.99
66102;HTU21D;52883;51.094;5.880;2023-07-31T00:21:43;15.67;118.99
66102;HTU21D;52883;51.094;5.880;2023-07-31T00:24:09;15.66;118.99
66102;HTU21D;52883;51.094;5.880;2023-07-31T00:26:34;15.68;118.99
66102;HTU21D;52883;51.094;5.880;2023-07-31T00:29:00;15.67;118.99
66102;HTU21D;52883;51.094;5.880;2023-07-31T00:31:25;15.66;118.99
66102;HTU21D;52883;51.094;5.880;2023-07-31T00:33:51;15.63;118.99
66102;HTU21D;52883;51.094;5.880;2023-07-31T00:36:16;15.59;118.99
66102;HTU21D;52883;51.094;5.880;2023-07-31T00:38:43;15.55;118.99
66102;HTU21D;52883;51.094;5.880;2023-07-31T00:41:09;15.52;118.99
66102;HTU21D;52883;51.094;5.880;2023-07-31T00:43:34;15.46;118.99
66102;HTU21D;52883;51.094;5.880;2023-07-31T00:46:00;15.42;118.99
66102;HTU21D;52883;51.094;5.880;2023-07-31T00:48:26;15.37;118.99
66102;HTU21D;52883;51.094;5.880;2023-07-31T00:50:52;15.31;118.99
66102;HTU21D;52883;51.094;5.880;2023-07-31T00:53:18;15.27;118.99
66102;HTU21D;52883;51.094;5.880;2023-07-31T00:55:44;15.22;118.99
66102;HTU21D;52883;51.094;5.880;2023-07-31T00:58:10;15.18;118.99
66102;HTU21D;52883;51.094;5.880;2023-07-31T01:00:38;15.15;118.99
66102;HTU21D;52883;51.094;5.880;2023-07-31T01:03:04;15.15;118.99
66102;HTU21D;52883;51.094;5.880;2023-07-31T01:05:43;15.19;118.99
66102;HTU21D;52883;51.094;5.880;2023-07-31T01:08:35;15.25;118.99
66102;HTU21D;52883;51.094;5.880;2023-07-31T01:11:25;15.32;118.99
66102;HTU21D;52883;51.094;5.880;2023-07-31T01:13:54;15.33;118.99
66102;HTU21D;52883;51.094;5.880;2023-07-31T01:16:20;15.37;118.99
66102;HTU21D;52883;51.094;5.880;2023-07-31T01:18:45;15.42;118.99
66102;HTU21D;52883;51.094;5.880;2023-07-31T01:24:22;15.44;118.99
66102;HTU21D;52883;51.094;5.880;2023-07-31T01:27:21;15.47;118.99
66102;HTU21D;52883;51.094;5.880;2023-07-31T01:32:19;15.47;118.99
66102;HTU21D;52883;51.094;5.880;2023-07-31T01:34:46;15.48;118.99
66102;HTU21D;52883;51.094;5.880;2023-07-31T01:37:12;15.49;118.99
66102;HTU21D;52883;51.094;5.880;2023-07-31T01:39:38;15.52;118.99
66102;HTU21D;52883;51.094;5.880;2023-07-31T01:42:03;15.54;118.99
66102;HTU21D;52883;51.094;5.880;2023-07-31T01:44:29;15.54;118.99
66102;HTU21D;52883;51.094;5.880;2023-07-31T01:46:55;15.56;118.99
66102;HTU21D;52883;51.094;5.880;2023-07-31T01:49:21;15.59;118.99
66102;HTU21D;52883;51.094;5.880;2023-07-31T01:51:46;15.61;118.99
66102;HTU21D;52883;51.094;5.880;2023-07-31T01:54:12;15.66;118.99
66102;HTU21D;52883;51.094;5.880;2023-07-31T01:56:37;15.67;118.99
66102;HTU21D;52883;51.094;5.880;2023-07-31T01:59:03;15.70;118.99
66102;HTU21D;52883;51.094;5.880;2023-07-31T02:01:29;15.74;118.99
66102;HTU21D;52883;51.094;5.880;2023-07-31T02:03:55;15.75;118.99
66102;HTU21D;52883;51.094;5.880;2023-07-31T02:06:23;15.76;118.99
66102;HTU21D;52883;51.094;5.880;2023-07-31T02:08:48;15.78;118.99
66102;HTU21D;52883;51.094;5.880;2023-07-31T02:11:14;15.81;118.99
66102;HTU21D;52883;51.094;5.880;2023-07-31T02:13:40;15.83;118.99
66102;HTU21D;52883;51.094;5.880;2023-07-31T02:16:06;15.84;118.99
66102;HTU21D;52883;51.094;5.880;2023-07-31T02:18:32;15.85;118.99
66102;HTU21D;52883;51.094;5.880;2023-07-31T02:20:58;15.87;118.99
66102;HTU21D;52883;51.094;5.880;2023-07-31T02:23:25;15.89;118.99
66102;HTU21D;52883;51.094;5.880;2023-07-31T02:25:50;15.89;118.99
66102;HTU21D;52883;51.094;5.880;2023-07-31T02:28:16;15.88;118.99
66102;HTU21D;52883;51.094;5.880;2023-07-31T02:30:45;15.89;118.99
66102;HTU21D;52883;51.094;5.880;2023-07-31T02:33:11;15.90;118.99
66102;HTU21D;52883;51.094;5.880;2023-07-31T02:35:37;15.91;118.99
66102;HTU21D;52883;51.094;5.880;2023-07-31T02:38:03;15.90;118.99
66102;HTU21D;52883;51.094;5.880;2023-07-31T02:40:28;15.93;118.99
66102;HTU21D;52883;51.094;5.880;2023-07-31T02:42:54;15.93;118.99
66102;HTU21D;52883;51.094;5.880;2023-07-31T02:45:19;15.93;118.99
66102;HTU21D;52883;51.094;5.880;2023-07-31T02:47:46;15.92;118.99
66102;HTU21D;52883;51.094;5.880;2023-07-31T02:50:11;15.93;118.99
66102;HTU21D;52883;51.094;5.880;2023-07-31T02:52:37;15.93;118.99
66102;HTU21D;52883;51.094;5.880;2023-07-31T02:55:03;15.96;118.99
66102;HTU21D;52883;51.094;5.880;2023-07-31T02:57:28;16.01;118.99
66102;HTU21D;52883;51.094;5.880;2023-07-31T02:59:54;16.04;118.99
66102;HTU21D;52883;51.094;5.880;2023-07-31T03:02:19;16.06;118.99
66102;HTU21D;52883;51.094;5.880;2023-07-31T03:04:45;16.07;118.99
66102;HTU21D;52883;51.094;5.880;2023-07-31T03:07:11;16.08;118.99
66102;HTU21D;52883;51.094;5.880;2023-07-31T03:09:37;16.07;118.99
66102;HTU21D;52883;51.094;5.880;2023-07-31T03:12:02;16.07;118.99
66102;HTU21D;52883;51.094;5.880;2023-07-31T03:14:28;16.06;118.99
66102;HTU21D;52883;51.094;5.880;2023-07-31T03:16:54;16.07;118.99
66102;HTU21D;52883;51.094;5.880;2023-07-31T03:19:20;16.06;118.99
66102;HTU21D;52883;51.094;5.880;2023-07-31T03:21:46;16.06;118.99
66102;HTU21D;52883;51.094;5.880;2023-07-31T03:24:11;16.06;118.99
66102;HTU21D;52883;51.094;5.880;2023-07-31T03:26:38;16.08;118.99
66102;HTU21D;52883;51.094;5.880;2023-07-31T03:29:07;16.08;118.99
66102;HTU21D;52883;51.094;5.880;2023-07-31T03:31:33;16.07;118.99
66102;HTU21D;52883;51.094;5.880;2023-07-31T03:33:58;16.06;118.99
66102;HTU21D;52883;51.094;5.880;2023-07-31T03:36:24;16.06;118.99
66102;HTU21D;52883;51.094;5.880;2023-07-31T03:38:51;16.11;118.99
66102;HTU21D;52883;51.094;5.880;2023-07-31T03:41:17;16.10;118.99
66102;HTU21D;52883;51.094;5.880;2023-07-31T03:43:46;16.08;118.99
66102;HTU21D;52883;51.094;5.880;2023-07-31T03:46:12;16.11;118.99
66102;HTU21D;52883;51.094;5.880;2023-07-31T03:48:37;16.12;118.99
66102;HTU21D;52883;51.094;5.880;2023-07-31T03:51:03;16.12;118.99
66102;HTU21D;52883;51.094;5.880;2023-07-31T03:53:28;16.11;118.99
66102;HTU21D;52883;51.094;5.880;2023-07-31T03:55:54;16.11;118.99
66102;HTU21D;52883;51.094;5.880;2023-07-31T03:58:19;16.12;118.99
66102;HTU21D;52883;51.094;5.880;2023-07-31T04:00:45;16.08;118.99
66102;HTU21D;52883;51.094;5.880;2023-07-31T04:03:11;16.10;118.99
66102;HTU21D;52883;51.094;5.880;2023-07-31T04:05:38;16.07;118.99
66102;HTU21D;52883;51.094;5.880;2023-07-31T04:08:05;16.12;118.99
66102;HTU21D;52883;51.094;5.880;2023-07-31T04:10:30;16.10;118.99
66102;HTU21D;52883;51.094;5.880;2023-07-31T04:12:59;16.12;118.99
66102;HTU21D;52883;51.094;5.880;2023-07-31T04:15:26;16.14;118.99
66102;HTU21D;52883;51.094;5.880;2023-07-31T04:17:51;16.17;118.99
66102;HTU21D;52883;51.094;5.880;2023-07-31T04:20:17;16.20;118.99
66102;HTU21D;52883;51.094;5.880;2023-07-31T04:22:43;16.25;118.99
66102;HTU21D;52883;51.094;5.880;2023-07-31T04:25:08;16.27;118.99
66102;HTU21D;52883;51.094;5.880;2023-07-31T04:27:34;16.30;118.99
66102;HTU21D;52883;51.094;5.880;2023-07-31T04:29:59;16.31;118.99
66102;HTU21D;52883;51.094;5.880;2023-07-31T04:32:25;16.34;118.99
66102;HTU21D;52883;51.094;5.880;2023-07-31T04:34:51;16.40;118.99
66102;HTU21D;52883;51.094;5.880;2023-07-31T04:37:16;16.42;118.99
66102;HTU21D;52883;51.094;5.880;2023-07-31T04:39:42;16.46;118.99
66102;HTU21D;52883;51.094;5.880;2023-07-31T04:42:08;16.46;118.99
66102;HTU21D;52883;51.094;5.880;2023-07-31T04:44:33;16.50;118.99
66102;HTU21D;52883;51.094;5.880;2023-07-31T04:46:59;16.49;118.99
66102;HTU21D;52883;51.094;5.880;2023-07-31T04:49:25;16.50;118.99
66102;HTU21D;52883;51.094;5.880;2023-07-31T04:51:50;16.51;118.99
66102;HTU21D;52883;51.094;5.880;2023-07-31T04:54:16;16.54;118.99
66102;HTU21D;52883;51.094;5.880;2023-07-31T04:56:42;16.55;118.99
66102;HTU21D;52883;51.094;5.880;2023-07-31T04:59:07;16.54;118.99
66102;HTU21D;52883;51.094;5.880;2023-07-31T05:01:33;16.51;118.99
66102;HTU21D;52883;51.094;5.880;2023-07-31T05:03:59;16.49;118.99
66102;HTU21D;52883;51.094;5.880;2023-07-31T05:06:24;16.47;118.99
66102;HTU21D;52883;51.094;5.880;2023-07-31T05:08:50;16.44;118.99
66102;HTU21D;52883;51.094;5.880;2023-07-31T05:11:15;16.42;118.99
66102;HTU21D;52883;51.094;5.880;2023-07-31T05:13:41;16.43;118.99
66102;HTU21D;52883;51.094;5.880;2023-07-31T05:16:06;16.40;118.99
66102;HTU21D;52883;51.094;5.880;2023-07-31T05:18:32;16.31;118.99
66102;HTU21D;52883;51.094;5.880;2023-07-31T05:20:58;16.25;118.99
66102;HTU21D;52883;51.094;5.880;2023-07-31T05:23:23;16.22;118.99
66102;HTU21D;52883;51.094;5.880;2023-07-31T05:25:49;16.22;118.99
66102;HTU21D;52883;51.094;5.880;2023-07-31T05:28:14;16.21;118.99
66102;HTU21D;52883;51.094;5.880;2023-07-31T05:30:40;16.17;118.99
66102;HTU21D;52883;51.094;5.880;2023-07-31T05:33:06;16.17;118.99
66102;HTU21D;52883;51.094;5.880;2023-07-31T05:35:31;16.18;118.99
66102;HTU21D;52883;51.094;5.880;2023-07-31T05:37:57;16.22;118.99
66102;HTU21D;52883;51.094;5.880;2023-07-31T05:40:22;16.22;118.99
66102;HTU21D;52883;51.094;5.880;2023-07-31T05:42:48;16.27;118.99
66102;HTU21D;52883;51.094;5.880;2023-07-31T05:45:14;16.27;118.99
66102;HTU21D;52883;51.094;5.880;2023-07-31T05:47:39;16.30;118.99
66102;HTU21D;52883;51.094;5.880;2023-07-31T05:50:05;16.31;118.99
66102;HTU21D;52883;51.094;5.880;2023-07-31T05:52:31;16.35;118.99
66102;HTU21D;52883;51.094;5.880;2023-07-31T05:54:57;16.41;118.99
66102;HTU21D;52883;51.094;5.880;2023-07-31T05:57:22;16.46;118.99
66102;HTU21D;52883;51.094;5.880;2023-07-31T05:59:48;16.56;118.99
66102;HTU21D;52883;51.094;5.880;2023-07-31T06:02:14;16.69;118.99
66102;HTU21D;52883;51.094;5.880;2023-07-31T06:04:39;16.76;118.99
66102;HTU21D;52883;51.094;5.880;2023-07-31T06:07:05;16.79;118.99
66102;HTU21D;52883;51.094;5.880;2023-07-31T06:09:31;16.82;118.99
66102;HTU21D;52883;51.094;5.880;2023-07-31T06:11:57;16.79;118.99
66102;HTU21D;52883;51.094;5.880;2023-07-31T06:14:22;16.78;118.99
66102;HTU21D;52883;51.094;5.880;2023-07-31T06:16:48;16.71;118.99
66102;HTU21D;52883;51.094;5.880;2023-07-31T06:19:13;16.67;118.99
66102;HTU21D;52883;51.094;5.880;2023-07-31T06:21:39;16.72;118.99
66102;HTU21D;52883;51.094;5.880;2023-07-31T06:24:07;16.81;118.99
66102;HTU21D;52883;51.094;5.880;2023-07-31T06:26:33;16.77;118.99
66102;HTU21D;52883;51.094;5.880;2023-07-31T06:28:58;16.73;118.99
66102;HTU21D;52883;51.094;5.880;2023-07-31T06:31:24;16.73;118.99
66102;HTU21D;52883;51.094;5.880;2023-07-31T06:33:51;16.75;118.99
66102;HTU21D;52883;51.094;5.880;2023-07-31T06:36:17;16.75;118.99
66102;HTU21D;52883;51.094;5.880;2023-07-31T06:38:43;16.77;118.99
66102;HTU21D;52883;51.094;5.880;2023-07-31T06:41:08;16.65;118.99
66102;HTU21D;52883;51.094;5.880;2023-07-31T06:43:36;16.56;118.99
66102;HTU21D;52883;51.094;5.880;2023-07-31T06:46:06;16.52;118.99
66102;HTU21D;52883;51.094;5.880;2023-07-31T06:48:33;16.52;118.99
66102;HTU21D;52883;51.094;5.880;2023-07-31T06:51:00;16.55;118.99
66102;HTU21D;52883;51.094;5.880;2023-07-31T06:53:25;16.56;118.99
66102;HTU21D;52883;51.094;5.880;2023-07-31T06:55:51;16.56;118.99
66102;HTU21D;52883;51.094;5.880;2023-07-31T06:58:17;16.60;118.99
66102;HTU21D;52883;51.094;5.880;2023-07-31T07:00:43;16.59;118.99
66102;HTU21D;52883;51.094;5.880;2023-07-31T07:03:09;16.57;118.99
66102;HTU21D;52883;51.094;5.880;2023-07-31T07:05:34;16.54;118.99
66102;HTU21D;52883;51.094;5.880;2023-07-31T07:08:00;16.49;118.99
66102;HTU21D;52883;51.094;5.880;2023-07-31T07:10:26;16.50;118.99
66102;HTU21D;52883;51.094;5.880;2023-07-31T07:12:52;16.45;118.99
66102;HTU21D;52883;51.094;5.880;2023-07-31T07:15:18;16.51;118.99
66102;HTU21D;52883;51.094;5.880;2023-07-31T07:17:43;16.64;118.99
66102;HTU21D;52883;51.094;5.880;2023-07-31T07:20:09;16.76;118.99
66102;HTU21D;52883;51.094;5.880;2023-07-31T07:22:35;16.75;118.99
66102;HTU21D;52883;51.094;5.880;2023-07-31T07:25:01;16.71;118.99
66102;HTU21D;52883;51.094;5.880;2023-07-31T07:27:27;16.66;118.99
66102;HTU21D;52883;51.094;5.880;2023-07-31T07:29:52;16.72;118.99
66102;HTU21D;52883;51.094;5.880;2023-07-31T07:32:18;16.82;118.99
66102;HTU21D;52883;51.094;5.880;2023-07-31T07:34:44;16.94;118.99
66102;HTU21D;52883;51.094;5.880;2023-07-31T07:37:10;17.11;118.99
66102;HTU21D;52883;51.094;5.880;2023-07-31T07:39:35;17.09;118.99
66102;HTU21D;52883;51.094;5.880;2023-07-31T07:42:01;17.18;118.99
66102;HTU21D;52883;51.094;5.880;2023-07-31T07:44:26;17.25;118.99
66102;HTU21D;52883;51.094;5.880;2023-07-31T07:46:52;17.19;118.99
66102;HTU21D;52883;51.094;5.880;2023-07-31T07:49:18;17.23;118.99
66102;HTU21D;52883;51.094;5.880;2023-07-31T07:51:43;17.45;118.99
66102;HTU21D;52883;51.094;5.880;2023-07-31T07:54:09;17.56;118.99
66102;HTU21D;52883;51.094;5.880;2023-07-31T07:56:34;17.68;118.99
66102;HTU21D;52883;51.094;5.880;2023-07-31T07:59:01;17.75;118.99
66102;HTU21D;52883;51.094;5.880;2023-07-31T08:01:27;17.78;118.99
66102;HTU21D;52883;51.094;5.880;2023-07-31T08:03:52;17.75;118.99
66102;HTU21D;52883;51.094;5.880;2023-07-31T08:06:18;17.69;118.99
66102;HTU21D;52883;51.094;5.880;2023-07-31T08:08:44;17.65;118.99
66102;HTU21D;52883;51.094;5.880;2023-07-31T08:11:09;17.56;118.99
66102;HTU21D;52883;51.094;5.880;2023-07-31T08:13:35;17.58;118.99
66102;HTU21D;52883;51.094;5.880;2023-07-31T08:16:03;17.56;118.99
66102;HTU21D;52883;51.094;5.880;2023-07-31T08:18:31;17.56;118.99
66102;HTU21D;52883;51.094;5.880;2023-07-31T08:20:56;17.47;118.99
66102;HTU21D;52883;51.094;5.880;2023-07-31T08:23:22;17.41;118.99
66102;HTU21D;52883;51.094;5.880;2023-07-31T08:25:48;17.31;118.99
66102;HTU21D;52883;51.094;5.880;2023-07-31T08:28:15;17.31;118.99
66102;HTU21D;52883;51.094;5.880;2023-07-31T08:30:41;17.49;118.99
66102;HTU21D;52883;51.094;5.880;2023-07-31T08:33:08;17.68;118.99
66102;HTU21D;52883;51.094;5.880;2023-07-31T08:35:33;17.92;118.99
66102;HTU21D;52883;51.094;5.880;2023-07-31T08:37:59;17.95;118.99
66102;HTU21D;52883;51.094;5.880;2023-07-31T08:40:24;18.09;118.99
66102;HTU21D;52883;51.094;5.880;2023-07-31T08:42:54;18.37;118.99
66102;HTU21D;52883;51.094;5.880;2023-07-31T08:45:22;18.65;118.99
66102;HTU21D;52883;51.094;5.880;2023-07-31T08:47:50;18.57;118.99
66102;HTU21D;52883;51.094;5.880;2023-07-31T08:50:17;18.65;118.99
66102;HTU21D;52883;51.094;5.880;2023-07-31T08:52:45;18.40;118.99
66102;HTU21D;52883;51.094;5.880;2023-07-31T08:55:11;18.37;118.99
66102;HTU21D;52883;51.094;5.880;2023-07-31T08:57:38;18.57;118.99
66102;HTU21D;52883;51.094;5.880;2023-07-31T09:00:06;18.79;118.99
66102;HTU21D;52883;51.094;5.880;2023-07-31T09:02:45;18.86;118.99
66102;HTU21D;52883;51.094;5.880;2023-07-31T09:05:12;19.21;118.99
66102;HTU21D;52883;51.094;5.880;2023-07-31T09:07:38;19.30;118.99
66102;HTU21D;52883;51.094;5.880;2023-07-31T09:10:05;18.99;118.99
66102;HTU21D;52883;51.094;5.880;2023-07-31T09:12:31;18.64;118.99
66102;HTU21D;52883;51.094;5.880;2023-07-31T09:14:57;18.55;118.99
66102;HTU21D;52883;51.094;5.880;2023-07-31T09:17:30;18.47;118.99
66102;HTU21D;52883;51.094;5.880;2023-07-31T09:19:56;18.46;118.99
66102;HTU21D;52883;51.094;5.880;2023-07-31T09:22:33;18.37;118.99
66102;HTU21D;52883;51.094;5.880;2023-07-31T09:25:20;18.28;118.99
66102;HTU21D;52883;51.094;5.880;2023-07-31T09:28:01;18.11;118.99
66102;HTU21D;52883;51.094;5.880;2023-07-31T09:30:27;18.18;118.99
66102;HTU21D;52883;51.094;5.880;2023-07-31T09:33:06;18.44;118.99
66102;HTU21D;52883;51.094;5.880;2023-07-31T09:35:34;18.61;118.99
66102;HTU21D;52883;51.094;5.880;2023-07-31T09:38:05;18.64;118.99
66102;HTU21D;52883;51.094;5.880;2023-07-31T09:40:32;18.65;118.99
66102;HTU21D;52883;51.094;5.880;2023-07-31T09:43:03;18.69;118.99
66102;HTU21D;52883;51.094;5.880;2023-07-31T09:45:33;19.03;118.99
66102;HTU21D;52883;51.094;5.880;2023-07-31T09:47:58;19.47;118.99
66102;HTU21D;52883;51.094;5.880;2023-07-31T09:50:24;19.96;118.99
66102;HTU21D;52883;51.094;5.880;2023-07-31T09:52:51;20.50;118.99
66102;HTU21D;52883;51.094;5.880;2023-07-31T09:55:19;20.72;118.99
66102;HTU21D;52883;51.094;5.880;2023-07-31T09:57:48;20.73;118.99
66102;HTU21D;52883;51.094;5.880;2023-07-31T10:00:17;21.05;118.99
66102;HTU21D;52883;51.094;5.880;2023-07-31T10:02:46;21.10;118.99
66102;HTU21D;52883;51.094;5.880;2023-07-31T10:05:14;20.71;118.99
66102;HTU21D;52883;51.094;5.880;2023-07-31T10:07:54;20.74;118.99
66102;HTU21D;52883;51.094;5.880;2023-07-31T10:10:21;20.47;118.99
66102;HTU21D;52883;51.094;5.880;2023-07-31T10:12:52;20.27;118.99
66102;HTU21D;52883;51.094;5.880;2023-07-31T10:15:19;20.11;118.99
66102;HTU21D;52883;51.094;5.880;2023-07-31T10:17:49;20.05;118.99
66102;HTU21D;52883;51.094;5.880;2023-07-31T10:20:16;20.17;118.99
66102;HTU21D;52883;51.094;5.880;2023-07-31T10:22:42;20.29;118.99
66102;HTU21D;52883;51.094;5.880;2023-07-31T10:25:09;20.25;118.99
66102;HTU21D;52883;51.094;5.880;2023-07-31T10:27:38;20.26;118.99
66102;HTU21D;52883;51.094;5.880;2023-07-31T10:30:08;20.20;118.99
66102;HTU21D;52883;51.094;5.880;2023-07-31T10:32:35;20.35;118.99
66102;HTU21D;52883;51.094;5.880;2023-07-31T10:35:03;20.43;118.99
66102;HTU21D;52883;51.094;5.880;2023-07-31T10:37:43;20.39;118.99
66102;HTU21D;52883;51.094;5.880;2023-07-31T10:40:24;20.48;118.99
66102;HTU21D;52883;51.094;5.880;2023-07-31T10:42:51;20.70;118.99
66102;HTU21D;52883;51.094;5.880;2023-07-31T10:45:31;20.92;118.99
66102;HTU21D;52883;51.094;5.880;2023-07-31T10:48:22;20.64;118.99
66102;HTU21D;52883;51.094;5.880;2023-07-31T10:50:55;20.18;118.99
66102;HTU21D;52883;51.094;5.880;2023-07-31T10:53:30;20.03;118.99
66102;HTU21D;52883;51.094;5.880;2023-07-31T10:56:04;20.00;118.99
66102;HTU21D;52883;51.094;5.880;2023-07-31T10:58:31;19.96;118.99
66102;HTU21D;52883;51.094;5.880;2023-07-31T11:01:00;19.91;118.99
66102;HTU21D;52883;51.094;5.880;2023-07-31T11:03:40;19.89;118.99
66102;HTU21D;52883;51.094;5.880;2023-07-31T11:06:06;20.47;118.99
66102;HTU21D;52883;51.094;5.880;2023-07-31T11:08:34;21.30;118.99
66102;HTU21D;52883;51.094;5.880;2023-07-31T11:13:30;22.43;118.99
66102;HTU21D;52883;51.094;5.880;2023-07-31T11:15:56;22.34;118.99
66102;HTU21D;52883;51.094;5.880;2023-07-31T11:18:23;22.25;118.99
66102;HTU21D;52883;51.094;5.880;2023-07-31T11:20:49;21.82;118.99
66102;HTU21D;52883;51.094;5.880;2023-07-31T11:23:17;21.17;118.99
66102;HTU21D;52883;51.094;5.880;2023-07-31T11:25:43;20.95;118.99
66102;HTU21D;52883;51.094;5.880;2023-07-31T11:28:13;20.72;118.99
66102;HTU21D;52883;51.094;5.880;2023-07-31T11:30:42;20.46;118.99
66102;HTU21D;52883;51.094;5.880;2023-07-31T11:33:09;20.37;118.99
66102;HTU21D;52883;51.094;5.880;2023-07-31T11:35:41;20.49;118.99
66102;HTU21D;52883;51.094;5.880;2023-07-31T11:38:08;20.59;118.99
66102;HTU21D;52883;51.094;5.880;2023-07-31T11:40:42;20.48;118.99
66102;HTU21D;52883;51.094;5.880;2023-07-31T11:43:08;20.57;118.99
66102;HTU21D;52883;51.094;5.880;2023-07-31T11:45:34;20.59;118.99
66102;HTU21D;52883;51.094;5.880;2023-07-31T11:48:01;20.54;118.99
66102;HTU21D;52883;51.094;5.880;2023-07-31T11:50:27;20.70;118.99
66102;HTU21D;52883;51.094;5.880;2023-07-31T11:52:59;21.06;118.99
66102;HTU21D;52883;51.094;5.880;2023-07-31T11:55:25;21.22;118.99
66102;HTU21D;52883;51.094;5.880;2023-07-31T11:57:53;21.09;118.99
66102;HTU21D;52883;51.094;5.880;2023-07-31T12:00:21;21.21;118.99
66102;HTU21D;52883;51.094;5.880;2023-07-31T12:02:47;21.43;118.99
66102;HTU21D;52883;51.094;5.880;2023-07-31T12:05:13;21.66;118.99
66102;HTU21D;52883;51.094;5.880;2023-07-31T12:07:50;21.76;118.99
66102;HTU21D;52883;51.094;5.880;2023-07-31T12:10:28;21.90;118.99
66102;HTU21D;52883;51.094;5.880;2023-07-31T12:13:05;21.99;118.99
66102;HTU21D;52883;51.094;5.880;2023-07-31T12:15:43;22.22;118.99
66102;HTU21D;52883;51.094;5.880;2023-07-31T12:18:12;22.54;118.99
66102;HTU21D;52883;51.094;5.880;2023-07-31T12:20:44;22.82;118.99
66102;HTU21D;52883;51.094;5.880;2023-07-31T12:23:25;23.26;118.99
66102;HTU21D;52883;51.094;5.880;2023-07-31T12:26:13;23.64;118.99
66102;HTU21D;52883;51.094;5.880;2023-07-31T12:28:45;23.71;118.99
66102;HTU21D;52883;51.094;5.880;2023-07-31T12:31:16;23.83;118.99
66102;HTU21D;52883;51.094;5.880;2023-07-31T12:33:46;23.88;118.99
66102;HTU21D;52883;51.094;5.880;2023-07-31T12:36:25;23.90;118.99
66102;HTU21D;52883;51.094;5.880;2023-07-31T12:38:52;24.20;118.99
66102;HTU21D;52883;51.094;5.880;2023-07-31T12:41:18;24.39;118.99
66102;HTU21D;52883;51.094;5.880;2023-07-31T12:43:45;24.54;118.99
66102;HTU21D;52883;51.094;5.880;2023-07-31T12:46:11;24.91;118.99
66102;HTU21D;52883;51.094;5.880;2023-07-31T12:48:38;25.35;118.99
66102;HTU21D;52883;51.094;5.880;2023-07-31T12:51:05;25.76;118.99
66102;HTU21D;52883;51.094;5.880;2023-07-31T12:53:32;25.73;118.99
66102;HTU21D;52883;51.094;5.880;2023-07-31T12:55:59;25.91;118.99
66102;HTU21D;52883;51.094;5.880;2023-07-31T12:58:24;25.96;118.99
66102;HTU21D;52883;51.094;5.880;2023-07-31T13:00:51;26.06;118.99
66102;HTU21D;52883;51.094;5.880;2023-07-31T13:03:16;26.13;118.99
66102;HTU21D;52883;51.094;5.880;2023-07-31T13:05:42;25.92;118.99
66102;HTU21D;52883;51.094;5.880;2023-07-31T13:08:07;25.82;118.99
66102;HTU21D;52883;51.094;5.880;2023-07-31T13:10:33;25.62;118.99
66102;HTU21D;52883;51.094;5.880;2023-07-31T13:12:59;25.79;118.99
66102;HTU21D;52883;51.094;5.880;2023-07-31T13:15:24;26.18;118.99
66102;HTU21D;52883;51.094;5.880;2023-07-31T13:17:50;25.71;118.99
66102;HTU21D;52883;51.094;5.880;2023-07-31T13:20:16;25.37;118.99
66102;HTU21D;52883;51.094;5.880;2023-07-31T13:22:41;24.97;118.99
66102;HTU21D;52883;51.094;5.880;2023-07-31T13:25:07;24.38;118.99
66102;HTU21D;52883;51.094;5.880;2023-07-31T13:27:34;23.87;118.99
66102;HTU21D;52883;51.094;5.880;2023-07-31T13:30:00;23.50;118.99
66102;HTU21D;52883;51.094;5.880;2023-07-31T13:32:25;23.30;118.99
66102;HTU21D;52883;51.094;5.880;2023-07-31T13:34:51;22.97;118.99
66102;HTU21D;52883;51.094;5.880;2023-07-31T13:37:17;22.53;118.99
66102;HTU21D;52883;51.094;5.880;2023-07-31T13:39:43;22.21;118.99
66102;HTU21D;52883;51.094;5.880;2023-07-31T13:42:09;22.07;118.99
66102;HTU21D;52883;51.094;5.880;2023-07-31T13:44:41;21.99;118.99
66102;HTU21D;52883;51.094;5.880;2023-07-31T13:47:08;21.84;118.99
66102;HTU21D;52883;51.094;5.880;2023-07-31T13:49:35;21.76;118.99
66102;HTU21D;52883;51.094;5.880;2023-07-31T13:52:01;21.64;118.99
66102;HTU21D;52883;51.094;5.880;2023-07-31T13:54:26;21.62;118.99
66102;HTU21D;52883;51.094;5.880;2023-07-31T13:56:53;21.62;118.99
66102;HTU21D;52883;51.094;5.880;2023-07-31T13:59:19;21.63;118.99
66102;HTU21D;52883;51.094;5.880;2023-07-31T14:01:44;21.89;118.99
66102;HTU21D;52883;51.094;5.880;2023-07-31T14:04:10;22.10;118.99
66102;HTU21D;52883;51.094;5.880;2023-07-31T14:06:36;22.27;118.99
66102;HTU21D;52883;51.094;5.880;2023-07-31T14:09:02;22.53;118.99
66102;HTU21D;52883;51.094;5.880;2023-07-31T14:11:28;22.77;118.99
66102;HTU21D;52883;51.094;5.880;2023-07-31T14:13:54;22.77;118.99
66102;HTU21D;52883;51.094;5.880;2023-07-31T14:16:21;22.70;118.99
66102;HTU21D;52883;51.094;5.880;2023-07-31T14:18:47;22.48;118.99
66102;HTU21D;52883;51.094;5.880;2023-07-31T14:21:13;22.48;118.99
66102;HTU21D;52883;51.094;5.880;2023-07-31T14:23:40;22.63;118.99
66102;HTU21D;52883;51.094;5.880;2023-07-31T14:26:06;22.69;118.99
66102;HTU21D;52883;51.094;5.880;2023-07-31T14:28:32;22.61;118.99
66102;HTU21D;52883;51.094;5.880;2023-07-31T14:30:58;22.49;118.99
66102;HTU21D;52883;51.094;5.880;2023-07-31T14:33:23;22.21;118.99
66102;HTU21D;52883;51.094;5.880;2023-07-31T14:35:49;21.94;118.99
66102;HTU21D;52883;51.094;5.880;2023-07-31T14:38:15;21.67;118.99
66102;HTU21D;52883;51.094;5.880;2023-07-31T14:40:41;21.44;118.99
66102;HTU21D;52883;51.094;5.880;2023-07-31T14:43:06;21.25;118.99
66102;HTU21D;52883;51.094;5.880;2023-07-31T14:45:32;21.10;118.99
66102;HTU21D;52883;51.094;5.880;2023-07-31T14:47:57;20.92;118.99
66102;HTU21D;52883;51.094;5.880;2023-07-31T14:50:25;20.76;118.99
66102;HTU21D;52883;51.094;5.880;2023-07-31T14:52:50;20.55;118.99
66102;HTU21D;52883;51.094;5.880;2023-07-31T14:55:19;20.28;118.99
66102;HTU21D;52883;51.094;5.880;2023-07-31T14:57:44;19.95;118.99
66102;HTU21D;52883;51.094;5.880;2023-07-31T15:00:10;19.60;118.99
66102;HTU21D;52883;51.094;5.880;2023-07-31T15:02:37;19.22;118.99
66102;HTU21D;52883;51.094;5.880;2023-07-31T15:05:04;18.88;118.99
66102;HTU21D;52883;51.094;5.880;2023-07-31T15:07:30;18.66;118.99
66102;HTU21D;52883;51.094;5.880;2023-07-31T15:09:55;18.49;118.99
66102;HTU21D;52883;51.094;5.880;2023-07-31T15:12:21;18.33;118.99